sensor_id;sensor_type;location;lat;lon;timestamp;P1;durP1;ratioP1;P2;durP2;ratioP2
73452;SDS011;61687;56.232;43.854;2022-09-01T00:02:01;15.80;;;7.18;;
73452;SDS011;61687;56.232;43.854;2022-09-01T00:04:33;15.25;;;7.47;;
73452;SDS011;61687;56.232;43.854;2022-09-01T00:07:04;14.52;;;6.93;;
73452;SDS011;61687;56.232;43.854;2022-09-01T00:09:30;15.65;;;6.95;;
73452;SDS011;61687;56.232;43.854;2022-09-01T00:11:57;15.03;;;9.37;;
73452;SDS011;61687;56.232;43.854;2022-09-01T00:14:24;17.27;;;10.38;;
73452;SDS011;61687;56.232;43.854;2022-09-01T00:16:54;17.92;;;9.38;;
73452;SDS011;61687;56.232;43.854;2022-09-01T00:19:21;17.25;;;9.65;;
73452;SDS011;61687;56.232;43.854;2022-09-01T00:21:48;15.75;;;9.00;;
73452;SDS011;61687;56.232;43.854;2022-09-01T00:24:15;16.33;;;8.93;;
73452;SDS011;61687;56.232;43.854;2022-09-01T00:26:43;14.77;;;8.07;;
73452;SDS011;61687;56.232;43.854;2022-09-01T00:29:09;14.57;;;7.57;;
73452;SDS011;61687;56.232;43.854;2022-09-01T00:31:36;14.45;;;7.53;;
73452;SDS011;61687;56.232;43.854;2022-09-01T00:34:02;13.10;;;6.70;;
73452;SDS011;61687;56.232;43.854;2022-09-01T00:36:29;14.30;;;6.37;;
73452;SDS011;61687;56.232;43.854;2022-09-01T00:38:55;10.48;;;6.00;;
73452;SDS011;61687;56.232;43.854;2022-09-01T00:41:22;9.90;;;5.15;;
73452;SDS011;61687;56.232;43.854;2022-09-01T00:43:51;10.93;;;5.40;;
73452;SDS011;61687;56.232;43.854;2022-09-01T00:46:42;8.20;;;4.82;;
73452;SDS011;61687;56.232;43.854;2022-09-01T00:49:25;10.70;;;4.33;;
73452;SDS011;61687;56.232;43.854;2022-09-01T00:51:53;7.70;;;4.47;;
73452;SDS011;61687;56.232;43.854;2022-09-01T00:54:25;6.82;;;3.83;;
73452;SDS011;61687;56.232;43.854;2022-09-01T00:56:55;7.95;;;3.92;;
73452;SDS011;61687;56.232;43.854;2022-09-01T00:59:22;6.55;;;4.00;;
73452;SDS011;61687;56.232;43.854;2022-09-01T01:01:49;7.23;;;3.40;;
73452;SDS011;61687;56.232;43.854;2022-09-01T01:04:15;7.00;;;3.22;;
73452;SDS011;61687;56.232;43.854;2022-09-01T01:06:46;5.95;;;3.13;;
73452;SDS011;61687;56.232;43.854;2022-09-01T01:09:23;5.40;;;2.92;;
73452;SDS011;61687;56.232;43.854;2022-09-01T01:11:51;11.43;;;2.67;;
73452;SDS011;61687;56.232;43.854;2022-09-01T01:14:18;4.40;;;2.67;;
73452;SDS011;61687;56.232;43.854;2022-09-01T01:16:48;5.38;;;3.08;;
73452;SDS011;61687;56.232;43.854;2022-09-01T01:22:07;4.72;;;2.05;;
73452;SDS011;61687;56.232;43.854;2022-09-01T01:24:57;3.17;;;1.60;;
73452;SDS011;61687;56.232;43.854;2022-09-01T01:27:29;5.47;;;1.90;;
73452;SDS011;61687;56.232;43.854;2022-09-01T01:29:56;2.70;;;1.65;;
73452;SDS011;61687;56.232;43.854;2022-09-01T01:32:22;6.13;;;1.80;;
73452;SDS011;61687;56.232;43.854;2022-09-01T01:34:48;3.35;;;1.90;;
73452;SDS011;61687;56.232;43.854;2022-09-01T01:37:14;3.47;;;2.00;;
73452;SDS011;61687;56.232;43.854;2022-09-01T01:39:40;2.85;;;1.85;;
73452;SDS011;61687;56.232;43.854;2022-09-01T01:42:09;2.85;;;1.50;;
73452;SDS011;61687;56.232;43.854;2022-09-01T01:44:37;5.53;;;2.03;;
73452;SDS011;61687;56.232;43.854;2022-09-01T01:47:04;4.13;;;2.45;;
73452;SDS011;61687;56.232;43.854;2022-09-01T01:49:38;3.07;;;2.10;;
73452;SDS011;61687;56.232;43.854;2022-09-01T01:52:10;3.75;;;2.70;;
73452;SDS011;61687;56.232;43.854;2022-09-01T01:54:41;4.15;;;1.90;;
73452;SDS011;61687;56.232;43.854;2022-09-01T01:57:11;3.00;;;2.10;;
73452;SDS011;61687;56.232;43.854;2022-09-01T01:59:42;4.40;;;2.30;;
73452;SDS011;61687;56.232;43.854;2022-09-01T02:02:09;5.07;;;1.60;;
73452;SDS011;61687;56.232;43.854;2022-09-01T02:04:37;3.55;;;2.10;;
73452;SDS011;61687;56.232;43.854;2022-09-01T02:07:11;3.88;;;1.80;;
73452;SDS011;61687;56.232;43.854;2022-09-01T02:09:39;3.63;;;2.00;;
73452;SDS011;61687;56.232;43.854;2022-09-01T02:12:08;4.70;;;2.17;;
73452;SDS011;61687;56.232;43.854;2022-09-01T02:14:35;4.03;;;1.93;;
73452;SDS011;61687;56.232;43.854;2022-09-01T02:17:01;3.55;;;1.65;;
73452;SDS011;61687;56.232;43.854;2022-09-01T02:19:28;3.30;;;1.70;;
73452;SDS011;61687;56.232;43.854;2022-09-01T02:21:54;4.78;;;1.85;;
73452;SDS011;61687;56.232;43.854;2022-09-01T02:24:22;4.78;;;2.30;;
73452;SDS011;61687;56.232;43.854;2022-09-01T02:26:49;5.53;;;2.23;;
73452;SDS011;61687;56.232;43.854;2022-09-01T02:29:18;5.55;;;2.40;;
73452;SDS011;61687;56.232;43.854;2022-09-01T02:31:47;2.90;;;2.00;;
73452;SDS011;61687;56.232;43.854;2022-09-01T02:34:15;3.15;;;2.22;;
73452;SDS011;61687;56.232;43.854;2022-09-01T02:36:43;3.35;;;1.77;;
73452;SDS011;61687;56.232;43.854;2022-09-01T02:39:23;6.63;;;2.30;;
73452;SDS011;61687;56.232;43.854;2022-09-01T02:41:54;5.43;;;1.80;;
73452;SDS011;61687;56.232;43.854;2022-09-01T02:44:26;7.53;;;2.08;;
73452;SDS011;61687;56.232;43.854;2022-09-01T02:46:54;4.45;;;2.00;;
73452;SDS011;61687;56.232;43.854;2022-09-01T02:49:22;4.25;;;2.10;;
73452;SDS011;61687;56.232;43.854;2022-09-01T02:51:55;5.07;;;1.77;;
73452;SDS011;61687;56.232;43.854;2022-09-01T02:54:26;4.18;;;1.70;;
73452;SDS011;61687;56.232;43.854;2022-09-01T02:56:54;2.85;;;1.92;;
73452;SDS011;61687;56.232;43.854;2022-09-01T02:59:23;5.18;;;2.22;;
73452;SDS011;61687;56.232;43.854;2022-09-01T03:01:51;4.30;;;2.22;;
73452;SDS011;61687;56.232;43.854;2022-09-01T03:04:19;4.10;;;2.20;;
73452;SDS011;61687;56.232;43.854;2022-09-01T03:06:47;5.10;;;1.90;;
73452;SDS011;61687;56.232;43.854;2022-09-01T03:09:16;6.25;;;1.75;;
73452;SDS011;61687;56.232;43.854;2022-09-01T03:11:45;4.00;;;1.55;;
73452;SDS011;61687;56.232;43.854;2022-09-01T03:14:13;3.42;;;1.60;;
73452;SDS011;61687;56.232;43.854;2022-09-01T03:16:40;7.77;;;2.07;;
73452;SDS011;61687;56.232;43.854;2022-09-01T03:19:06;5.80;;;2.13;;
73452;SDS011;61687;56.232;43.854;2022-09-01T03:21:35;3.30;;;1.95;;
73452;SDS011;61687;56.232;43.854;2022-09-01T03:24:04;3.97;;;2.20;;
73452;SDS011;61687;56.232;43.854;2022-09-01T03:26:30;5.32;;;2.17;;
73452;SDS011;61687;56.232;43.854;2022-09-01T03:28:56;4.80;;;1.97;;
73452;SDS011;61687;56.232;43.854;2022-09-01T03:31:23;3.70;;;1.95;;
73452;SDS011;61687;56.232;43.854;2022-09-01T03:33:53;5.82;;;2.33;;
73452;SDS011;61687;56.232;43.854;2022-09-01T03:36:26;4.35;;;1.80;;
73452;SDS011;61687;56.232;43.854;2022-09-01T03:38:54;5.15;;;2.08;;
73452;SDS011;61687;56.232;43.854;2022-09-01T03:41:22;4.37;;;1.73;;
73452;SDS011;61687;56.232;43.854;2022-09-01T03:43:53;3.95;;;2.15;;
73452;SDS011;61687;56.232;43.854;2022-09-01T03:46:23;7.60;;;2.00;;
73452;SDS011;61687;56.232;43.854;2022-09-01T03:48:54;4.97;;;2.33;;
73452;SDS011;61687;56.232;43.854;2022-09-01T03:51:23;6.78;;;1.83;;
73452;SDS011;61687;56.232;43.854;2022-09-01T03:53:52;6.67;;;2.03;;
73452;SDS011;61687;56.232;43.854;2022-09-01T03:56:20;5.53;;;2.22;;
73452;SDS011;61687;56.232;43.854;2022-09-01T03:58:50;4.00;;;2.10;;
73452;SDS011;61687;56.232;43.854;2022-09-01T04:01:17;3.85;;;2.50;;
73452;SDS011;61687;56.232;43.854;2022-09-01T04:03:43;5.30;;;2.03;;
73452;SDS011;61687;56.232;43.854;2022-09-01T04:06:12;5.00;;;1.90;;
73452;SDS011;61687;56.232;43.854;2022-09-01T04:08:38;3.88;;;1.73;;
73452;SDS011;61687;56.232;43.854;2022-09-01T04:11:15;3.63;;;1.92;;
73452;SDS011;61687;56.232;43.854;2022-09-01T04:13:44;4.40;;;2.55;;
73452;SDS011;61687;56.232;43.854;2022-09-01T04:16:22;5.80;;;1.77;;
73452;SDS011;61687;56.232;43.854;2022-09-01T04:19:12;4.80;;;1.65;;
73452;SDS011;61687;56.232;43.854;2022-09-01T04:21:48;9.00;;;2.28;;
73452;SDS011;61687;56.232;43.854;2022-09-01T04:24:17;5.97;;;2.00;;
73452;SDS011;61687;56.232;43.854;2022-09-01T04:26:44;4.80;;;2.00;;
73452;SDS011;61687;56.232;43.854;2022-09-01T04:29:13;4.30;;;1.40;;
73452;SDS011;61687;56.232;43.854;2022-09-01T04:31:43;4.18;;;1.40;;
73452;SDS011;61687;56.232;43.854;2022-09-01T04:34:19;4.97;;;1.73;;
73452;SDS011;61687;56.232;43.854;2022-09-01T04:36:47;2.63;;;1.23;;
73452;SDS011;61687;56.232;43.854;2022-09-01T04:39:13;3.83;;;1.88;;
73452;SDS011;61687;56.232;43.854;2022-09-01T04:41:40;2.70;;;1.50;;
73452;SDS011;61687;56.232;43.854;2022-09-01T04:44:10;3.05;;;1.40;;
73452;SDS011;61687;56.232;43.854;2022-09-01T04:46:39;6.40;;;1.90;;
73452;SDS011;61687;56.232;43.854;2022-09-01T04:49:09;6.90;;;1.48;;
73452;SDS011;61687;56.232;43.854;2022-09-01T04:51:40;5.13;;;1.52;;
73452;SDS011;61687;56.232;43.854;2022-09-01T04:54:09;4.33;;;1.77;;
73452;SDS011;61687;56.232;43.854;2022-09-01T04:56:40;5.40;;;1.55;;
73452;SDS011;61687;56.232;43.854;2022-09-01T04:59:13;5.07;;;1.42;;
73452;SDS011;61687;56.232;43.854;2022-09-01T05:01:43;3.72;;;1.40;;
73452;SDS011;61687;56.232;43.854;2022-09-01T05:04:13;5.68;;;1.75;;
73452;SDS011;61687;56.232;43.854;2022-09-01T05:06:44;4.40;;;1.60;;
73452;SDS011;61687;56.232;43.854;2022-09-01T05:09:14;4.05;;;1.77;;
73452;SDS011;61687;56.232;43.854;2022-09-01T05:12:05;5.72;;;2.08;;
73452;SDS011;61687;56.232;43.854;2022-09-01T05:14:40;4.00;;;1.75;;
73452;SDS011;61687;56.232;43.854;2022-09-01T05:17:09;4.32;;;1.60;;
73452;SDS011;61687;56.232;43.854;2022-09-01T05:19:37;3.50;;;1.73;;
73452;SDS011;61687;56.232;43.854;2022-09-01T05:22:05;4.60;;;1.75;;
73452;SDS011;61687;56.232;43.854;2022-09-01T05:24:34;3.15;;;1.80;;
73452;SDS011;61687;56.232;43.854;2022-09-01T05:27:03;5.30;;;1.63;;
73452;SDS011;61687;56.232;43.854;2022-09-01T05:29:33;4.72;;;1.88;;
73452;SDS011;61687;56.232;43.854;2022-09-01T05:32:04;4.40;;;1.60;;
73452;SDS011;61687;56.232;43.854;2022-09-01T05:34:38;4.20;;;1.50;;
73452;SDS011;61687;56.232;43.854;2022-09-01T05:37:07;3.95;;;1.50;;
73452;SDS011;61687;56.232;43.854;2022-09-01T05:39:36;3.45;;;1.60;;
73452;SDS011;61687;56.232;43.854;2022-09-01T05:42:04;3.50;;;1.50;;
73452;SDS011;61687;56.232;43.854;2022-09-01T05:44:37;5.83;;;2.20;;
73452;SDS011;61687;56.232;43.854;2022-09-01T05:47:08;5.78;;;1.77;;
73452;SDS011;61687;56.232;43.854;2022-09-01T05:49:37;2.90;;;1.42;;
73452;SDS011;61687;56.232;43.854;2022-09-01T05:52:06;3.45;;;1.50;;
73452;SDS011;61687;56.232;43.854;2022-09-01T05:54:35;3.97;;;2.20;;
73452;SDS011;61687;56.232;43.854;2022-09-01T05:57:01;4.57;;;1.53;;
73452;SDS011;61687;56.232;43.854;2022-09-01T05:59:28;2.50;;;1.77;;
73452;SDS011;61687;56.232;43.854;2022-09-01T06:02:09;5.07;;;1.70;;
73452;SDS011;61687;56.232;43.854;2022-09-01T06:04:37;3.13;;;1.52;;
73452;SDS011;61687;56.232;43.854;2022-09-01T06:07:11;3.65;;;2.10;;
73452;SDS011;61687;56.232;43.854;2022-09-01T06:09:45;3.27;;;1.10;;
73452;SDS011;61687;56.232;43.854;2022-09-01T06:12:15;4.40;;;2.10;;
73452;SDS011;61687;56.232;43.854;2022-09-01T06:14:43;3.30;;;1.55;;
73452;SDS011;61687;56.232;43.854;2022-09-01T06:17:13;2.92;;;1.80;;
73452;SDS011;61687;56.232;43.854;2022-09-01T06:19:44;3.17;;;1.80;;
73452;SDS011;61687;56.232;43.854;2022-09-01T06:22:11;3.20;;;1.47;;
73452;SDS011;61687;56.232;43.854;2022-09-01T06:24:38;2.95;;;1.60;;
73452;SDS011;61687;56.232;43.854;2022-09-01T06:27:06;2.78;;;1.55;;
73452;SDS011;61687;56.232;43.854;2022-09-01T06:29:36;2.72;;;2.17;;
73452;SDS011;61687;56.232;43.854;2022-09-01T06:32:07;5.05;;;1.63;;
73452;SDS011;61687;56.232;43.854;2022-09-01T06:34:38;2.70;;;1.30;;
73452;SDS011;61687;56.232;43.854;2022-09-01T06:37:07;2.47;;;1.60;;
73452;SDS011;61687;56.232;43.854;2022-09-01T06:39:35;4.68;;;1.88;;
73452;SDS011;61687;56.232;43.854;2022-09-01T06:42:01;2.63;;;1.30;;
73452;SDS011;61687;56.232;43.854;2022-09-01T06:44:39;2.60;;;1.42;;
73452;SDS011;61687;56.232;43.854;2022-09-01T06:47:07;3.53;;;1.30;;
73452;SDS011;61687;56.232;43.854;2022-09-01T06:49:33;3.10;;;1.10;;
73452;SDS011;61687;56.232;43.854;2022-09-01T06:52:04;2.92;;;1.23;;
73452;SDS011;61687;56.232;43.854;2022-09-01T06:54:31;3.20;;;1.20;;
73452;SDS011;61687;56.232;43.854;2022-09-01T06:57:03;5.47;;;1.35;;
73452;SDS011;61687;56.232;43.854;2022-09-01T06:59:29;2.83;;;1.20;;
73452;SDS011;61687;56.232;43.854;2022-09-01T07:01:58;3.33;;;1.60;;
73452;SDS011;61687;56.232;43.854;2022-09-01T07:04:41;3.22;;;1.10;;
73452;SDS011;61687;56.232;43.854;2022-09-01T07:07:08;4.53;;;1.35;;
73452;SDS011;61687;56.232;43.854;2022-09-01T07:09:55;2.70;;;1.55;;
73452;SDS011;61687;56.232;43.854;2022-09-01T07:12:33;2.60;;;1.53;;
73452;SDS011;61687;56.232;43.854;2022-09-01T07:14:59;3.35;;;1.20;;
73452;SDS011;61687;56.232;43.854;2022-09-01T07:17:25;4.57;;;1.70;;
73452;SDS011;61687;56.232;43.854;2022-09-01T07:19:54;5.20;;;1.65;;
73452;SDS011;61687;56.232;43.854;2022-09-01T07:22:21;4.65;;;1.60;;
73452;SDS011;61687;56.232;43.854;2022-09-01T07:24:49;2.60;;;1.20;;
73452;SDS011;61687;56.232;43.854;2022-09-01T07:27:50;2.42;;;1.50;;
73452;SDS011;61687;56.232;43.854;2022-09-01T07:30:18;4.85;;;1.63;;
73452;SDS011;61687;56.232;43.854;2022-09-01T07:32:47;2.72;;;1.30;;
73452;SDS011;61687;56.232;43.854;2022-09-01T07:35:16;2.67;;;1.23;;
73452;SDS011;61687;56.232;43.854;2022-09-01T07:37:45;3.20;;;2.10;;
73452;SDS011;61687;56.232;43.854;2022-09-01T07:40:14;4.03;;;1.60;;
73452;SDS011;61687;56.232;43.854;2022-09-01T07:43:16;2.72;;;1.73;;
73452;SDS011;61687;56.232;43.854;2022-09-01T07:46:13;5.20;;;1.50;;
73452;SDS011;61687;56.232;43.854;2022-09-01T07:48:39;5.55;;;1.75;;
73452;SDS011;61687;56.232;43.854;2022-09-01T07:51:05;2.93;;;1.60;;
73452;SDS011;61687;56.232;43.854;2022-09-01T07:53:32;3.60;;;1.50;;
73452;SDS011;61687;56.232;43.854;2022-09-01T07:56:06;4.65;;;1.98;;
73452;SDS011;61687;56.232;43.854;2022-09-01T07:58:38;5.13;;;1.90;;
73452;SDS011;61687;56.232;43.854;2022-09-01T08:01:07;5.45;;;1.90;;
73452;SDS011;61687;56.232;43.854;2022-09-01T08:03:36;6.50;;;2.00;;
73452;SDS011;61687;56.232;43.854;2022-09-01T08:06:03;2.90;;;1.45;;
73452;SDS011;61687;56.232;43.854;2022-09-01T08:08:35;3.65;;;1.25;;
73452;SDS011;61687;56.232;43.854;2022-09-01T08:11:02;2.60;;;1.20;;
73452;SDS011;61687;56.232;43.854;2022-09-01T08:13:29;3.53;;;1.85;;
73452;SDS011;61687;56.232;43.854;2022-09-01T08:15:55;4.37;;;1.30;;
73452;SDS011;61687;56.232;43.854;2022-09-01T08:18:21;2.38;;;1.27;;
73452;SDS011;61687;56.232;43.854;2022-09-01T08:20:47;2.50;;;1.17;;
73452;SDS011;61687;56.232;43.854;2022-09-01T08:23:30;7.70;;;1.65;;
73452;SDS011;61687;56.232;43.854;2022-09-01T08:25:56;2.83;;;1.37;;
73452;SDS011;61687;56.232;43.854;2022-09-01T08:28:22;5.60;;;1.33;;
73452;SDS011;61687;56.232;43.854;2022-09-01T08:30:48;3.75;;;1.33;;
73452;SDS011;61687;56.232;43.854;2022-09-01T08:33:15;5.95;;;1.88;;
73452;SDS011;61687;56.232;43.854;2022-09-01T08:35:45;3.53;;;1.60;;
73452;SDS011;61687;56.232;43.854;2022-09-01T08:38:13;4.33;;;1.80;;
73452;SDS011;61687;56.232;43.854;2022-09-01T08:40:41;4.47;;;1.50;;
73452;SDS011;61687;56.232;43.854;2022-09-01T08:45:55;4.07;;;1.67;;
73452;SDS011;61687;56.232;43.854;2022-09-01T08:48:26;5.00;;;1.30;;
73452;SDS011;61687;56.232;43.854;2022-09-01T08:56:43;3.80;;;1.80;;
73452;SDS011;61687;56.232;43.854;2022-09-01T08:59:18;3.20;;;1.90;;
73452;SDS011;61687;56.232;43.854;2022-09-01T09:04:49;3.37;;;2.17;;
73452;SDS011;61687;56.232;43.854;2022-09-01T09:13:21;5.18;;;2.35;;
73452;SDS011;61687;56.232;43.854;2022-09-01T09:21:15;6.78;;;2.25;;
73452;SDS011;61687;56.232;43.854;2022-09-01T09:26:49;3.83;;;1.92;;
73452;SDS011;61687;56.232;43.854;2022-09-01T09:29:16;5.07;;;2.33;;
73452;SDS011;61687;56.232;43.854;2022-09-01T09:31:43;4.40;;;2.60;;
73452;SDS011;61687;56.232;43.854;2022-09-01T09:34:17;5.35;;;2.30;;
73452;SDS011;61687;56.232;43.854;2022-09-01T09:37:29;4.07;;;1.75;;
73452;SDS011;61687;56.232;43.854;2022-09-01T09:45:21;4.87;;;2.23;;
73452;SDS011;61687;56.232;43.854;2022-09-01T09:47:56;5.75;;;1.90;;
73452;SDS011;61687;56.232;43.854;2022-09-01T09:50:27;4.40;;;1.90;;
73452;SDS011;61687;56.232;43.854;2022-09-01T09:53:11;5.93;;;1.85;;
73452;SDS011;61687;56.232;43.854;2022-09-01T09:55:53;5.93;;;2.57;;
73452;SDS011;61687;56.232;43.854;2022-09-01T09:58:20;4.50;;;1.70;;
73452;SDS011;61687;56.232;43.854;2022-09-01T10:01:03;7.47;;;1.90;;
73452;SDS011;61687;56.232;43.854;2022-09-01T10:03:50;6.00;;;2.22;;
73452;SDS011;61687;56.232;43.854;2022-09-01T10:09:00;10.87;;;2.47;;
73452;SDS011;61687;56.232;43.854;2022-09-01T10:11:32;5.32;;;1.88;;
73452;SDS011;61687;56.232;43.854;2022-09-01T10:14:26;3.13;;;1.75;;
73452;SDS011;61687;56.232;43.854;2022-09-01T10:16:57;9.70;;;2.38;;
73452;SDS011;61687;56.232;43.854;2022-09-01T10:19:28;4.05;;;1.98;;
73452;SDS011;61687;56.232;43.854;2022-09-01T10:21:59;3.97;;;2.03;;
73452;SDS011;61687;56.232;43.854;2022-09-01T10:24:29;3.60;;;2.10;;
73452;SDS011;61687;56.232;43.854;2022-09-01T10:26:58;4.18;;;2.03;;
73452;SDS011;61687;56.232;43.854;2022-09-01T10:29:30;8.43;;;2.15;;
73452;SDS011;61687;56.232;43.854;2022-09-01T10:32:01;4.33;;;1.40;;
73452;SDS011;61687;56.232;43.854;2022-09-01T10:34:34;4.55;;;1.80;;
73452;SDS011;61687;56.232;43.854;2022-09-01T10:37:02;4.45;;;1.95;;
73452;SDS011;61687;56.232;43.854;2022-09-01T10:39:30;4.55;;;1.85;;
73452;SDS011;61687;56.232;43.854;2022-09-01T10:41:57;3.75;;;1.50;;
73452;SDS011;61687;56.232;43.854;2022-09-01T10:44:36;4.50;;;1.53;;
73452;SDS011;61687;56.232;43.854;2022-09-01T10:49:59;3.20;;;1.58;;
73452;SDS011;61687;56.232;43.854;2022-09-01T10:55:09;6.03;;;2.55;;
73452;SDS011;61687;56.232;43.854;2022-09-01T11:21:46;6.43;;;2.90;;
73452;SDS011;61687;56.232;43.854;2022-09-01T11:27:03;5.32;;;2.47;;
73452;SDS011;61687;56.232;43.854;2022-09-01T11:32:17;5.43;;;1.90;;
73452;SDS011;61687;56.232;43.854;2022-09-01T11:34:44;3.30;;;1.60;;
73452;SDS011;61687;56.232;43.854;2022-09-01T11:37:15;2.83;;;1.42;;
73452;SDS011;61687;56.232;43.854;2022-09-01T11:39:48;4.28;;;1.70;;
73452;SDS011;61687;56.232;43.854;2022-09-01T11:47:45;4.07;;;1.73;;
73452;SDS011;61687;56.232;43.854;2022-09-01T11:52:40;3.10;;;1.45;;
73452;SDS011;61687;56.232;43.854;2022-09-01T11:55:07;3.92;;;1.73;;
73452;SDS011;61687;56.232;43.854;2022-09-01T11:57:36;4.67;;;1.70;;
73452;SDS011;61687;56.232;43.854;2022-09-01T12:00:05;3.08;;;1.55;;
73452;SDS011;61687;56.232;43.854;2022-09-01T12:02:44;4.25;;;1.63;;
73452;SDS011;61687;56.232;43.854;2022-09-01T12:05:34;3.67;;;1.73;;
73452;SDS011;61687;56.232;43.854;2022-09-01T12:08:13;4.43;;;2.35;;
73452;SDS011;61687;56.232;43.854;2022-09-01T12:10:42;4.33;;;2.27;;
73452;SDS011;61687;56.232;43.854;2022-09-01T12:13:11;2.97;;;1.60;;
73452;SDS011;61687;56.232;43.854;2022-09-01T12:15:43;7.72;;;3.22;;
73452;SDS011;61687;56.232;43.854;2022-09-01T12:18:23;5.80;;;1.73;;
73452;SDS011;61687;56.232;43.854;2022-09-01T12:20:53;4.25;;;2.03;;
73452;SDS011;61687;56.232;43.854;2022-09-01T12:25:54;4.97;;;2.08;;
73452;SDS011;61687;56.232;43.854;2022-09-01T12:28:30;5.60;;;2.90;;
73452;SDS011;61687;56.232;43.854;2022-09-01T12:30:58;5.07;;;1.60;;
73452;SDS011;61687;56.232;43.854;2022-09-01T12:33:26;3.92;;;1.58;;
73452;SDS011;61687;56.232;43.854;2022-09-01T12:36:38;6.87;;;2.80;;
73452;SDS011;61687;56.232;43.854;2022-09-01T12:38:45;10.73;;;4.10;;
73452;SDS011;61687;56.232;43.854;2022-09-01T12:46:52;5.57;;;3.00;;
73452;SDS011;61687;56.232;43.854;2022-09-01T12:49:22;5.18;;;2.33;;
73452;SDS011;61687;56.232;43.854;2022-09-01T12:52:08;3.75;;;2.13;;
73452;SDS011;61687;56.232;43.854;2022-09-01T12:54:36;7.03;;;2.00;;
73452;SDS011;61687;56.232;43.854;2022-09-01T12:57:02;6.78;;;2.20;;
73452;SDS011;61687;56.232;43.854;2022-09-01T12:59:29;6.93;;;2.10;;
73452;SDS011;61687;56.232;43.854;2022-09-01T13:01:55;3.95;;;2.00;;
73452;SDS011;61687;56.232;43.854;2022-09-01T13:04:23;4.97;;;1.73;;
73452;SDS011;61687;56.232;43.854;2022-09-01T13:06:53;5.40;;;1.92;;
73452;SDS011;61687;56.232;43.854;2022-09-01T13:09:21;2.90;;;1.77;;
73452;SDS011;61687;56.232;43.854;2022-09-01T13:11:47;5.38;;;2.45;;
73452;SDS011;61687;56.232;43.854;2022-09-01T13:14:14;3.72;;;2.17;;
73452;SDS011;61687;56.232;43.854;2022-09-01T13:16:41;6.57;;;2.53;;
73452;SDS011;61687;56.232;43.854;2022-09-01T13:19:07;5.32;;;2.50;;
73452;SDS011;61687;56.232;43.854;2022-09-01T13:21:34;3.20;;;2.23;;
73452;SDS011;61687;56.232;43.854;2022-09-01T13:24:01;4.03;;;1.83;;
73452;SDS011;61687;56.232;43.854;2022-09-01T13:26:29;5.85;;;1.80;;
73452;SDS011;61687;56.232;43.854;2022-09-01T13:28:56;4.93;;;2.22;;
73452;SDS011;61687;56.232;43.854;2022-09-01T13:31:23;5.83;;;2.57;;
73452;SDS011;61687;56.232;43.854;2022-09-01T13:33:49;6.75;;;2.15;;
73452;SDS011;61687;56.232;43.854;2022-09-01T13:36:16;5.97;;;2.22;;
73452;SDS011;61687;56.232;43.854;2022-09-01T13:38:43;4.43;;;2.83;;
73452;SDS011;61687;56.232;43.854;2022-09-01T13:41:09;5.82;;;1.92;;
73452;SDS011;61687;56.232;43.854;2022-09-01T13:43:35;5.63;;;2.40;;
73452;SDS011;61687;56.232;43.854;2022-09-01T13:46:02;4.63;;;2.10;;
73452;SDS011;61687;56.232;43.854;2022-09-01T13:48:28;3.88;;;1.90;;
73452;SDS011;61687;56.232;43.854;2022-09-01T13:50:54;2.58;;;1.60;;
73452;SDS011;61687;56.232;43.854;2022-09-01T13:53:22;4.53;;;2.00;;
73452;SDS011;61687;56.232;43.854;2022-09-01T13:55:48;5.10;;;2.50;;
73452;SDS011;61687;56.232;43.854;2022-09-01T13:58:14;5.28;;;2.92;;
73452;SDS011;61687;56.232;43.854;2022-09-01T14:00:42;6.25;;;2.20;;
73452;SDS011;61687;56.232;43.854;2022-09-01T14:03:15;4.95;;;2.45;;
73452;SDS011;61687;56.232;43.854;2022-09-01T14:05:45;5.80;;;2.87;;
73452;SDS011;61687;56.232;43.854;2022-09-01T14:08:13;4.32;;;1.80;;
73452;SDS011;61687;56.232;43.854;2022-09-01T14:10:43;3.95;;;1.98;;
73452;SDS011;61687;56.232;43.854;2022-09-01T14:13:11;2.88;;;2.03;;
73452;SDS011;61687;56.232;43.854;2022-09-01T14:15:37;3.65;;;2.30;;
73452;SDS011;61687;56.232;43.854;2022-09-01T14:18:04;5.83;;;2.63;;
73452;SDS011;61687;56.232;43.854;2022-09-01T14:20:35;5.03;;;2.05;;
73452;SDS011;61687;56.232;43.854;2022-09-01T14:23:04;3.85;;;1.85;;
73452;SDS011;61687;56.232;43.854;2022-09-01T14:25:32;6.57;;;2.38;;
73452;SDS011;61687;56.232;43.854;2022-09-01T14:27:59;8.00;;;2.35;;
73452;SDS011;61687;56.232;43.854;2022-09-01T14:30:27;4.03;;;1.90;;
73452;SDS011;61687;56.232;43.854;2022-09-01T14:32:55;8.23;;;2.35;;
73452;SDS011;61687;56.232;43.854;2022-09-01T14:35:22;7.32;;;2.63;;
73452;SDS011;61687;56.232;43.854;2022-09-01T14:37:50;4.75;;;3.20;;
73452;SDS011;61687;56.232;43.854;2022-09-01T14:40:20;4.13;;;2.33;;
73452;SDS011;61687;56.232;43.854;2022-09-01T14:42:49;5.53;;;3.10;;
73452;SDS011;61687;56.232;43.854;2022-09-01T14:45:18;7.00;;;3.08;;
73452;SDS011;61687;56.232;43.854;2022-09-01T14:47:46;4.45;;;2.33;;
73452;SDS011;61687;56.232;43.854;2022-09-01T14:50:14;4.63;;;2.45;;
73452;SDS011;61687;56.232;43.854;2022-09-01T14:52:41;3.72;;;2.65;;
73452;SDS011;61687;56.232;43.854;2022-09-01T14:55:07;5.63;;;2.50;;
73452;SDS011;61687;56.232;43.854;2022-09-01T14:57:33;7.82;;;2.30;;
73452;SDS011;61687;56.232;43.854;2022-09-01T14:59:59;7.05;;;2.15;;
73452;SDS011;61687;56.232;43.854;2022-09-01T15:02:25;6.70;;;2.45;;
73452;SDS011;61687;56.232;43.854;2022-09-01T15:04:52;4.73;;;2.20;;
73452;SDS011;61687;56.232;43.854;2022-09-01T15:07:19;4.50;;;2.35;;
73452;SDS011;61687;56.232;43.854;2022-09-01T15:09:45;4.60;;;2.88;;
73452;SDS011;61687;56.232;43.854;2022-09-01T15:12:11;4.18;;;2.30;;
73452;SDS011;61687;56.232;43.854;2022-09-01T15:14:37;4.43;;;2.50;;
73452;SDS011;61687;56.232;43.854;2022-09-01T15:17:03;4.23;;;2.43;;
73452;SDS011;61687;56.232;43.854;2022-09-01T15:19:31;4.68;;;2.20;;
73452;SDS011;61687;56.232;43.854;2022-09-01T15:21:57;5.15;;;1.95;;
73452;SDS011;61687;56.232;43.854;2022-09-01T15:24:23;4.72;;;2.20;;
73452;SDS011;61687;56.232;43.854;2022-09-01T15:26:49;4.47;;;2.20;;
73452;SDS011;61687;56.232;43.854;2022-09-01T15:29:15;5.15;;;2.30;;
73452;SDS011;61687;56.232;43.854;2022-09-01T15:31:41;7.78;;;2.25;;
73452;SDS011;61687;56.232;43.854;2022-09-01T15:34:08;5.40;;;2.60;;
73452;SDS011;61687;56.232;43.854;2022-09-01T15:36:35;4.25;;;2.53;;
73452;SDS011;61687;56.232;43.854;2022-09-01T15:39:04;5.78;;;2.55;;
73452;SDS011;61687;56.232;43.854;2022-09-01T15:41:32;3.80;;;2.35;;
73452;SDS011;61687;56.232;43.854;2022-09-01T15:44:00;5.95;;;2.38;;
73452;SDS011;61687;56.232;43.854;2022-09-01T15:46:29;4.70;;;2.80;;
73452;SDS011;61687;56.232;43.854;2022-09-01T15:48:59;3.83;;;2.63;;
73452;SDS011;61687;56.232;43.854;2022-09-01T15:51:30;5.43;;;2.15;;
73452;SDS011;61687;56.232;43.854;2022-09-01T15:54:06;6.07;;;2.75;;
73452;SDS011;61687;56.232;43.854;2022-09-01T15:56:34;5.30;;;2.50;;
73452;SDS011;61687;56.232;43.854;2022-09-01T15:59:00;5.77;;;3.30;;
73452;SDS011;61687;56.232;43.854;2022-09-01T16:01:28;5.75;;;2.45;;
73452;SDS011;61687;56.232;43.854;2022-09-01T16:03:56;7.00;;;2.97;;
73452;SDS011;61687;56.232;43.854;2022-09-01T16:06:22;10.45;;;3.08;;
73452;SDS011;61687;56.232;43.854;2022-09-01T16:08:49;7.70;;;2.90;;
73452;SDS011;61687;56.232;43.854;2022-09-01T16:11:19;4.97;;;3.47;;
73452;SDS011;61687;56.232;43.854;2022-09-01T16:13:48;8.30;;;4.30;;
73452;SDS011;61687;56.232;43.854;2022-09-01T16:19:39;6.68;;;3.25;;
73452;SDS011;61687;56.232;43.854;2022-09-01T16:22:27;7.20;;;3.40;;